sensor_id;sensor_type;location;lat;lon;timestamp;pressure;altitude;pressure_sealevel;temperature
20848;BMP180;10584;50.854;12.902;2023-01-16T00:02:43;96795.00;;;3.00
20848;BMP180;10584;50.854;12.902;2023-01-16T00:08:05;96800.00;;;2.90
20848;BMP180;10584;50.854;12.902;2023-01-16T00:13:26;96783.00;;;2.90
20848;BMP180;10584;50.854;12.902;2023-01-16T00:18:48;96793.00;;;2.90
20848;BMP180;10584;50.854;12.902;2023-01-16T00:24:10;96780.00;;;3.00
20848;BMP180;10584;50.854;12.902;2023-01-16T00:29:31;96763.00;;;3.00
20848;BMP180;10584;50.854;12.902;2023-01-16T00:34:52;96756.00;;;3.00
20848;BMP180;10584;50.854;12.902;2023-01-16T00:40:14;96754.00;;;3.10
20848;BMP180;10584;50.854;12.902;2023-01-16T00:45:36;96735.00;;;3.00
20848;BMP180;10584;50.854;12.902;2023-01-16T00:50:57;96734.00;;;3.10
20848;BMP180;10584;50.854;12.902;2023-01-16T00:56:19;96718.00;;;3.10
20848;BMP180;10584;50.854;12.902;2023-01-16T01:01:40;96711.00;;;2.90
20848;BMP180;10584;50.854;12.902;2023-01-16T01:07:02;96706.00;;;3.00
20848;BMP180;10584;50.854;12.902;2023-01-16T01:12:23;96702.00;;;2.80
20848;BMP180;10584;50.854;12.902;2023-01-16T01:17:45;96708.00;;;2.70
20848;BMP180;10584;50.854;12.902;2023-01-16T01:23:07;96700.00;;;2.80
20848;BMP180;10584;50.854;12.902;2023-01-16T01:28:28;96699.00;;;2.70
20848;BMP180;10584;50.854;12.902;2023-01-16T01:33:50;96688.00;;;2.60
20848;BMP180;10584;50.854;12.902;2023-01-16T01:39:13;96667.00;;;2.70
20848;BMP180;10584;50.854;12.902;2023-01-16T01:45:09;96657.00;;;2.70
20848;BMP180;10584;50.854;12.902;2023-01-16T01:50:38;96652.00;;;2.80
20848;BMP180;10584;50.854;12.902;2023-01-16T01:56:10;96648.00;;;2.70
20848;BMP180;10584;50.854;12.902;2023-01-16T02:01:34;96634.00;;;2.60
20848;BMP180;10584;50.854;12.902;2023-01-16T02:07:00;96618.00;;;2.50
20848;BMP180;10584;50.854;12.902;2023-01-16T02:12:22;96619.00;;;2.40
20848;BMP180;10584;50.854;12.902;2023-01-16T02:17:44;96622.00;;;2.30
20848;BMP180;10584;50.854;12.902;2023-01-16T02:23:41;96612.00;;;2.50
20848;BMP180;10584;50.854;12.902;2023-01-16T02:29:40;96599.00;;;2.50
20848;BMP180;10584;50.854;12.902;2023-01-16T02:52:30;96560.00;;;2.20
20848;BMP180;10584;50.854;12.902;2023-01-16T02:58:02;96541.00;;;2.30
20848;BMP180;10584;50.854;12.902;2023-01-16T03:04:03;96539.00;;;2.20
20848;BMP180;10584;50.854;12.902;2023-01-16T03:15:34;96521.00;;;2.40
20848;BMP180;10584;50.854;12.902;2023-01-16T03:26:45;96505.00;;;2.30
20848;BMP180;10584;50.854;12.902;2023-01-16T03:38:03;96493.00;;;2.20
20848;BMP180;10584;50.854;12.902;2023-01-16T03:43:30;96485.00;;;2.10
20848;BMP180;10584;50.854;12.902;2023-01-16T03:49:04;96486.00;;;2.30
20848;BMP180;10584;50.854;12.902;2023-01-16T04:00:00;96477.00;;;2.20
20848;BMP180;10584;50.854;12.902;2023-01-16T04:11:08;96468.00;;;2.20
20848;BMP180;10584;50.854;12.902;2023-01-16T04:16:31;96451.00;;;2.20
20848;BMP180;10584;50.854;12.902;2023-01-16T04:21:54;96444.00;;;2.20
20848;BMP180;10584;50.854;12.902;2023-01-16T04:27:18;96421.00;;;2.20
20848;BMP180;10584;50.854;12.902;2023-01-16T04:32:40;96418.00;;;2.00
20848;BMP180;10584;50.854;12.902;2023-01-16T04:38:02;96404.00;;;2.00
20848;BMP180;10584;50.854;12.902;2023-01-16T04:43:23;96393.00;;;2.10
20848;BMP180;10584;50.854;12.902;2023-01-16T04:48:45;96389.00;;;2.10
20848;BMP180;10584;50.854;12.902;2023-01-16T04:54:07;96383.00;;;2.10
20848;BMP180;10584;50.854;12.902;2023-01-16T04:59:30;96367.00;;;2.20
20848;BMP180;10584;50.854;12.902;2023-01-16T05:04:51;96380.00;;;2.00
20848;BMP180;10584;50.854;12.902;2023-01-16T05:10:12;96373.00;;;2.10
20848;BMP180;10584;50.854;12.902;2023-01-16T05:15:34;96378.00;;;1.90
20848;BMP180;10584;50.854;12.902;2023-01-16T05:20:55;96375.00;;;2.00
20848;BMP180;10584;50.854;12.902;2023-01-16T05:26:17;96358.00;;;1.90
20848;BMP180;10584;50.854;12.902;2023-01-16T05:31:39;96344.00;;;1.80
20848;BMP180;10584;50.854;12.902;2023-01-16T05:37:00;96334.00;;;1.80
20848;BMP180;10584;50.854;12.902;2023-01-16T05:42:22;96326.00;;;1.90
20848;BMP180;10584;50.854;12.902;2023-01-16T05:47:45;96314.00;;;2.00
20848;BMP180;10584;50.854;12.902;2023-01-16T05:53:07;96305.00;;;1.90
20848;BMP180;10584;50.854;12.902;2023-01-16T05:58:29;96308.00;;;2.00
20848;BMP180;10584;50.854;12.902;2023-01-16T06:03:50;96292.00;;;2.00
20848;BMP180;10584;50.854;12.902;2023-01-16T06:09:12;96295.00;;;1.90
20848;BMP180;10584;50.854;12.902;2023-01-16T06:14:34;96281.00;;;2.00
20848;BMP180;10584;50.854;12.902;2023-01-16T06:19:56;96282.00;;;2.00
20848;BMP180;10584;50.854;12.902;2023-01-16T06:25:18;96273.00;;;2.10
20848;BMP180;10584;50.854;12.902;2023-01-16T06:30:40;96275.00;;;1.90
20848;BMP180;10584;50.854;12.902;2023-01-16T06:36:01;96277.00;;;2.00
20848;BMP180;10584;50.854;12.902;2023-01-16T06:41:23;96258.00;;;2.00
20848;BMP180;10584;50.854;12.902;2023-01-16T06:46:45;96257.00;;;2.00
20848;BMP180;10584;50.854;12.902;2023-01-16T06:52:06;96257.00;;;2.00
20848;BMP180;10584;50.854;12.902;2023-01-16T06:57:27;96251.00;;;2.00
20848;BMP180;10584;50.854;12.902;2023-01-16T07:02:56;96249.00;;;2.00
20848;BMP180;10584;50.854;12.902;2023-01-16T07:08:18;96253.00;;;2.10
20848;BMP180;10584;50.854;12.902;2023-01-16T07:13:39;96241.00;;;2.30
20848;BMP180;10584;50.854;12.902;2023-01-16T07:19:01;96223.00;;;2.30
20848;BMP180;10584;50.854;12.902;2023-01-16T07:24:41;96203.00;;;2.20
20848;BMP180;10584;50.854;12.902;2023-01-16T07:30:02;96201.00;;;2.30
20848;BMP180;10584;50.854;12.902;2023-01-16T07:35:24;96193.00;;;2.30
20848;BMP180;10584;50.854;12.902;2023-01-16T07:40:45;96179.00;;;2.30
20848;BMP180;10584;50.854;12.902;2023-01-16T07:46:07;96179.00;;;2.30
20848;BMP180;10584;50.854;12.902;2023-01-16T07:51:29;96171.00;;;2.30
20848;BMP180;10584;50.854;12.902;2023-01-16T07:56:51;96165.00;;;2.30
20848;BMP180;10584;50.854;12.902;2023-01-16T08:02:13;96158.00;;;2.40
20848;BMP180;10584;50.854;12.902;2023-01-16T08:07:34;96138.00;;;2.50
20848;BMP180;10584;50.854;12.902;2023-01-16T08:12:56;96122.00;;;2.70
20848;BMP180;10584;50.854;12.902;2023-01-16T08:18:18;96115.00;;;2.80
20848;BMP180;10584;50.854;12.902;2023-01-16T08:23:40;96092.00;;;2.80
20848;BMP180;10584;50.854;12.902;2023-01-16T08:29:02;96083.00;;;2.80
20848;BMP180;10584;50.854;12.902;2023-01-16T08:34:24;96078.00;;;2.90
20848;BMP180;10584;50.854;12.902;2023-01-16T08:39:45;96067.00;;;2.90
20848;BMP180;10584;50.854;12.902;2023-01-16T08:45:10;96049.00;;;2.90
20848;BMP180;10584;50.854;12.902;2023-01-16T08:50:50;96023.00;;;3.00
20848;BMP180;10584;50.854;12.902;2023-01-16T08:56:30;96020.00;;;3.30
20848;BMP180;10584;50.854;12.902;2023-01-16T09:01:51;96009.00;;;3.60
20848;BMP180;10584;50.854;12.902;2023-01-16T09:07:13;96000.00;;;3.90
20848;BMP180;10584;50.854;12.902;2023-01-16T09:12:35;95992.00;;;4.10
20848;BMP180;10584;50.854;12.902;2023-01-16T09:18:15;95976.00;;;4.30
20848;BMP180;10584;50.854;12.902;2023-01-16T09:23:37;95967.00;;;4.30
20848;BMP180;10584;50.854;12.902;2023-01-16T09:28:58;95956.00;;;4.60
20848;BMP180;10584;50.854;12.902;2023-01-16T09:34:20;95946.00;;;4.70
20848;BMP180;10584;50.854;12.902;2023-01-16T09:39:41;95947.00;;;4.80
20848;BMP180;10584;50.854;12.902;2023-01-16T09:45:10;95931.00;;;5.00
20848;BMP180;10584;50.854;12.902;2023-01-16T09:50:36;95922.00;;;5.20
20848;BMP180;10584;50.854;12.902;2023-01-16T09:55:59;95889.00;;;5.50
20848;BMP180;10584;50.854;12.902;2023-01-16T10:01:43;95883.00;;;5.70
20848;BMP180;10584;50.854;12.902;2023-01-16T10:08:05;95861.00;;;6.00
20848;BMP180;10584;50.854;12.902;2023-01-16T10:30:14;95808.00;;;6.60
20848;BMP180;10584;50.854;12.902;2023-01-16T10:35:40;95802.00;;;6.80
20848;BMP180;10584;50.854;12.902;2023-01-16T10:41:04;95785.00;;;7.00
20848;BMP180;10584;50.854;12.902;2023-01-16T10:46:46;95769.00;;;7.20
20848;BMP180;10584;50.854;12.902;2023-01-16T10:52:27;95746.00;;;7.40
20848;BMP180;10584;50.854;12.902;2023-01-16T10:58:02;95739.00;;;7.50
20848;BMP180;10584;50.854;12.902;2023-01-16T11:09:05;95731.00;;;7.60
20848;BMP180;10584;50.854;12.902;2023-01-16T11:14:45;95693.00;;;7.50
20848;BMP180;10584;50.854;12.902;2023-01-16T11:20:32;95688.00;;;7.50
20848;BMP180;10584;50.854;12.902;2023-01-16T11:25:55;95687.00;;;7.50
20848;BMP180;10584;50.854;12.902;2023-01-16T11:31:21;95659.00;;;7.70
20848;BMP180;10584;50.854;12.902;2023-01-16T11:36:47;95651.00;;;7.90
20848;BMP180;10584;50.854;12.902;2023-01-16T11:42:12;95646.00;;;8.00
20848;BMP180;10584;50.854;12.902;2023-01-16T11:47:54;95632.00;;;7.80
20848;BMP180;10584;50.854;12.902;2023-01-16T11:53:16;95621.00;;;7.80
20848;BMP180;10584;50.854;12.902;2023-01-16T11:58:44;95611.00;;;7.90
20848;BMP180;10584;50.854;12.902;2023-01-16T12:04:15;95603.00;;;8.20
20848;BMP180;10584;50.854;12.902;2023-01-16T12:09:43;95588.00;;;8.40
20848;BMP180;10584;50.854;12.902;2023-01-16T12:15:48;95571.00;;;8.50
20848;BMP180;10584;50.854;12.902;2023-01-16T12:21:49;95557.00;;;8.50
20848;BMP180;10584;50.854;12.902;2023-01-16T12:33:18;95541.00;;;8.20
20848;BMP180;10584;50.854;12.902;2023-01-16T12:38:57;95524.00;;;7.90
20848;BMP180;10584;50.854;12.902;2023-01-16T13:08:17;95461.00;;;7.50
20848;BMP180;10584;50.854;12.902;2023-01-16T13:13:48;95441.00;;;7.40
20848;BMP180;10584;50.854;12.902;2023-01-16T13:19:15;95441.00;;;7.40
20848;BMP180;10584;50.854;12.902;2023-01-16T13:30:19;95427.00;;;7.30
20848;BMP180;10584;50.854;12.902;2023-01-16T13:35:46;95412.00;;;7.30
20848;BMP180;10584;50.854;12.902;2023-01-16T13:41:14;95407.00;;;7.30
20848;BMP180;10584;50.854;12.902;2023-01-16T13:46:36;95393.00;;;7.20
20848;BMP180;10584;50.854;12.902;2023-01-16T13:52:02;95387.00;;;6.90
20848;BMP180;10584;50.854;12.902;2023-01-16T13:57:25;95346.00;;;7.00
20848;BMP180;10584;50.854;12.902;2023-01-16T14:08:44;95324.00;;;6.80
20848;BMP180;10584;50.854;12.902;2023-01-16T14:20:41;95312.00;;;6.60
20848;BMP180;10584;50.854;12.902;2023-01-16T14:26:05;95294.00;;;6.50
20848;BMP180;10584;50.854;12.902;2023-01-16T14:31:41;95287.00;;;6.30
20848;BMP180;10584;50.854;12.902;2023-01-16T14:37:12;95278.00;;;6.40
20848;BMP180;10584;50.854;12.902;2023-01-16T14:54:11;95268.00;;;5.80
20848;BMP180;10584;50.854;12.902;2023-01-16T15:05:36;95250.00;;;5.70
20848;BMP180;10584;50.854;12.902;2023-01-16T15:11:26;95254.00;;;5.60
20848;BMP180;10584;50.854;12.902;2023-01-16T15:22:55;95231.00;;;5.50
20848;BMP180;10584;50.854;12.902;2023-01-16T15:33:41;95228.00;;;5.40
20848;BMP180;10584;50.854;12.902;2023-01-16T15:39:19;95216.00;;;5.50
20848;BMP180;10584;50.854;12.902;2023-01-16T15:44:44;95219.00;;;5.40
20848;BMP180;10584;50.854;12.902;2023-01-16T15:50:48;95219.00;;;5.40
20848;BMP180;10584;50.854;12.902;2023-01-16T15:56:25;95216.00;;;5.30
20848;BMP180;10584;50.854;12.902;2023-01-16T16:01:48;95185.00;;;5.40
20848;BMP180;10584;50.854;12.902;2023-01-16T16:07:11;95206.00;;;5.20
20848;BMP180;10584;50.854;12.902;2023-01-16T16:12:33;95180.00;;;5.30
20848;BMP180;10584;50.854;12.902;2023-01-16T16:18:07;95172.00;;;5.30
20848;BMP180;10584;50.854;12.902;2023-01-16T16:23:33;95170.00;;;5.20
20848;BMP180;10584;50.854;12.902;2023-01-16T16:28:55;95167.00;;;5.30
20848;BMP180;10584;50.854;12.902;2023-01-16T16:34:21;95151.00;;;5.10
20848;BMP180;10584;50.854;12.902;2023-01-16T16:40:06;95154.00;;;5.10
20848;BMP180;10584;50.854;12.902;2023-01-16T16:45:31;95143.00;;;5.10
20848;BMP180;10584;50.854;12.902;2023-01-16T16:56:53;95130.00;;;4.90
20848;BMP180;10584;50.854;12.902;2023-01-16T17:02:15;95118.00;;;4.80
20848;BMP180;10584;50.854;12.902;2023-01-16T17:07:37;95141.00;;;4.90
20848;BMP180;10584;50.854;12.902;2023-01-16T17:12:59;95136.00;;;4.90
20848;BMP180;10584;50.854;12.902;2023-01-16T17:18:25;95132.00;;;4.90
20848;BMP180;10584;50.854;12.902;2023-01-16T17:23:47;95131.00;;;4.70
20848;BMP180;10584;50.854;12.902;2023-01-16T17:29:09;95127.00;;;4.90
20848;BMP180;10584;50.854;12.902;2023-01-16T17:34:31;95120.00;;;4.80
20848;BMP180;10584;50.854;12.902;2023-01-16T17:39:53;95120.00;;;4.80
20848;BMP180;10584;50.854;12.902;2023-01-16T17:45:26;95113.00;;;4.80
20848;BMP180;10584;50.854;12.902;2023-01-16T17:51:08;95101.00;;;4.70
20848;BMP180;10584;50.854;12.902;2023-01-16T17:56:30;95103.00;;;4.60
20848;BMP180;10584;50.854;12.902;2023-01-16T18:01:51;95083.00;;;4.60
20848;BMP180;10584;50.854;12.902;2023-01-16T18:07:15;95067.00;;;4.60
20848;BMP180;10584;50.854;12.902;2023-01-16T18:12:37;95069.00;;;4.60
20848;BMP180;10584;50.854;12.902;2023-01-16T18:18:17;95052.00;;;4.50
20848;BMP180;10584;50.854;12.902;2023-01-16T18:23:38;95055.00;;;4.50
20848;BMP180;10584;50.854;12.902;2023-01-16T18:29:00;95056.00;;;4.40
20848;BMP180;10584;50.854;12.902;2023-01-16T18:34:21;95053.00;;;4.50
20848;BMP180;10584;50.854;12.902;2023-01-16T18:39:44;95031.00;;;4.40
20848;BMP180;10584;50.854;12.902;2023-01-16T18:45:24;95019.00;;;4.50
20848;BMP180;10584;50.854;12.902;2023-01-16T18:51:11;95019.00;;;4.40
20848;BMP180;10584;50.854;12.902;2023-01-16T18:57:13;95028.00;;;4.30
20848;BMP180;10584;50.854;12.902;2023-01-16T19:02:54;95024.00;;;4.30
20848;BMP180;10584;50.854;12.902;2023-01-16T19:08:16;95030.00;;;4.20
20848;BMP180;10584;50.854;12.902;2023-01-16T19:13:44;95007.00;;;4.20
20848;BMP180;10584;50.854;12.902;2023-01-16T19:19:07;94984.00;;;4.20
20848;BMP180;10584;50.854;12.902;2023-01-16T19:24:29;94966.00;;;4.00
20848;BMP180;10584;50.854;12.902;2023-01-16T19:29:52;94952.00;;;4.00
20848;BMP180;10584;50.854;12.902;2023-01-16T19:35:13;94954.00;;;4.00
20848;BMP180;10584;50.854;12.902;2023-01-16T19:40:35;94947.00;;;4.00
20848;BMP180;10584;50.854;12.902;2023-01-16T19:46:13;94928.00;;;3.80
20848;BMP180;10584;50.854;12.902;2023-01-16T19:51:53;94921.00;;;3.80
20848;BMP180;10584;50.854;12.902;2023-01-16T19:57:17;94891.00;;;3.80
20848;BMP180;10584;50.854;12.902;2023-01-16T20:02:38;94880.00;;;3.80
20848;BMP180;10584;50.854;12.902;2023-01-16T20:08:00;94881.00;;;3.80
20848;BMP180;10584;50.854;12.902;2023-01-16T20:13:22;94866.00;;;3.80
20848;BMP180;10584;50.854;12.902;2023-01-16T20:18:43;94871.00;;;3.90
20848;BMP180;10584;50.854;12.902;2023-01-16T20:24:05;94847.00;;;4.00
20848;BMP180;10584;50.854;12.902;2023-01-16T20:29:27;94845.00;;;4.00
20848;BMP180;10584;50.854;12.902;2023-01-16T20:34:49;94843.00;;;4.00
20848;BMP180;10584;50.854;12.902;2023-01-16T20:40:11;94841.00;;;4.20
20848;BMP180;10584;50.854;12.902;2023-01-16T20:45:33;94845.00;;;4.20
20848;BMP180;10584;50.854;12.902;2023-01-16T20:51:14;94838.00;;;4.20
20848;BMP180;10584;50.854;12.902;2023-01-16T20:56:36;94830.00;;;4.30
20848;BMP180;10584;50.854;12.902;2023-01-16T21:01:58;94816.00;;;4.30
20848;BMP180;10584;50.854;12.902;2023-01-16T21:07:22;94807.00;;;4.30
20848;BMP180;10584;50.854;12.902;2023-01-16T21:12:44;94811.00;;;4.40
20848;BMP180;10584;50.854;12.902;2023-01-16T21:18:24;94814.00;;;4.50
20848;BMP180;10584;50.854;12.902;2023-01-16T21:24:11;94806.00;;;4.50
20848;BMP180;10584;50.854;12.902;2023-01-16T21:29:33;94805.00;;;4.60
20848;BMP180;10584;50.854;12.902;2023-01-16T21:34:55;94797.00;;;4.60
20848;BMP180;10584;50.854;12.902;2023-01-16T21:40:19;94794.00;;;4.60
20848;BMP180;10584;50.854;12.902;2023-01-16T21:45:40;94783.00;;;4.70
20848;BMP180;10584;50.854;12.902;2023-01-16T21:51:21;94780.00;;;4.70
20848;BMP180;10584;50.854;12.902;2023-01-16T21:56:43;94773.00;;;4.60
20848;BMP180;10584;50.854;12.902;2023-01-16T22:02:04;94777.00;;;4.60
20848;BMP180;10584;50.854;12.902;2023-01-16T22:07:26;94763.00;;;4.60
20848;BMP180;10584;50.854;12.902;2023-01-16T22:12:48;94776.00;;;4.60
20848;BMP180;10584;50.854;12.902;2023-01-16T22:18:28;94776.00;;;4.70
20848;BMP180;10584;50.854;12.902;2023-01-16T22:23:52;94762.00;;;4.60
20848;BMP180;10584;50.854;12.902;2023-01-16T22:29:19;94767.00;;;4.80
20848;BMP180;10584;50.854;12.902;2023-01-16T22:34:41;94764.00;;;4.80
20848;BMP180;10584;50.854;12.902;2023-01-16T22:40:03;94769.00;;;4.70
20848;BMP180;10584;50.854;12.902;2023-01-16T22:45:25;94754.00;;;4.70
20848;BMP180;10584;50.854;12.902;2023-01-16T22:51:06;94763.00;;;4.60
20848;BMP180;10584;50.854;12.902;2023-01-16T22:56:32;94770.00;;;4.70
20848;BMP180;10584;50.854;12.902;2023-01-16T23:01:54;94754.00;;;4.60
20848;BMP180;10584;50.854;12.902;2023-01-16T23:07:15;94759.00;;;4.60
20848;BMP180;10584;50.854;12.902;2023-01-16T23:12:37;94774.00;;;4.50
20848;BMP180;10584;50.854;12.902;2023-01-16T23:17:58;94769.00;;;4.60
20848;BMP180;10584;50.854;12.902;2023-01-16T23:23:20;94765.00;;;4.40
20848;BMP180;10584;50.854;12.902;2023-01-16T23:28:43;94771.00;;;4.50
20848;BMP180;10584;50.854;12.902;2023-01-16T23:34:12;94757.00;;;4.60
20848;BMP180;10584;50.854;12.902;2023-01-16T23:39:34;94753.00;;;4.50
20848;BMP180;10584;50.854;12.902;2023-01-16T23:44:56;94753.00;;;4.60
20848;BMP180;10584;50.854;12.902;2023-01-16T23:50:17;94756.00;;;4.50
20848;BMP180;10584;50.854;12.902;2023-01-16T23:55:39;94764.00;;;4.40
